ADDS METAR Data INFO
IDs: Format: Raw Decoded Include TAF

Data at: 0840 UTC 21 Oct 2017

KLEE 210753Z AUTO 07005KT 10SM CLR 23/21 A3010 RMK AO2 SLP190 T02280211
KLEE 210653Z AUTO 07006KT 10SM CLR 23/21 A3010 RMK AO2 SLP193 T02280211
KLEE 210553Z AUTO 07005KT 10SM CLR 23/21 A3012 RMK AO2 SLP198 T02280206 10256 20222 58006
KLEE 210453Z AUTO 05005KT 10SM CLR 23/19 A3013 RMK AO2 SLP202 T02280194 403170217
KLEE 210353Z AUTO 05005KT 10SM CLR 22/19 A3014 RMK AO2 SLP206 T02220189
KLEE 210253Z AUTO 05005KT 10SM CLR 22/19 A3014 RMK AO2 SLP205 T02220189 51007
KLEE 210153Z AUTO 05004KT 10SM CLR 23/19 A3013 RMK AO2 SLP203 T02330189
KLEE 210053Z AUTO 06005KT 10SM CLR 24/19 A3013 RMK AO2 SLP200 T02440189
KLEE 202353Z AUTO 07008KT 10SM CLR 26/19 A3012 RMK AO2 SLP197 T02560189 10317 20256 53009
KLEE 202253Z AUTO 07010KT 10SM CLR 27/19 A3010 RMK AO2 SLP191 T02670189
KLEE 202153Z 08012KT 10SM CLR 28/19 A3009 RMK AO2 SLP189 T02830189
KLEE 202053Z 08011G18KT 10SM FEW055 29/17 A3009 RMK AO2 SLP188 T02890172 56009
KLEE 201953Z 08012G20KT 10SM FEW048 30/18 A3009 RMK AO2 SLP189 T03000178
KLEE 201853Z 07010KT 10SM FEW046 BKN060 31/19 A3009 RMK AO2 SLP189 T03060194
KLEE 201753Z 08012G19KT 10SM CLR 30/17 A3012 RMK AO2 SLP197 T03000172 10306 20217 58018
KLEE 201653Z 08012G20KT 10SM CLR 30/17 A3015 RMK AO2 SLP207 T03000167
KLEE 201553Z 07015G20KT 10SM CLR 29/18 A3016 RMK AO2 SLP211 T02890178
KLEE 201453Z 07010KT 10SM CLR 28/21 A3017 RMK AO2 SLP215 T02780206 51008
KLEE 201353Z 01006KT 10SM FEW038 BKN046 26/22 A3017 RMK AO2 SLP215 T02560222
KLEE 201253Z 03004KT 10SM CLR 23/22 A3016 RMK AO2 SLP212 T02330222
KLEE 201200Z 02003KT 10SM CLR 22/22 A3015 RMK AO2 T02170217
KLEE 201153Z 01003KT 10SM SCT003 BKN026 22/22 A3015 RMK AO2 SLP207 70002 T02170217 10233 20217 53010
KLEE 201121Z 01006KT 10SM SCT003 BKN026 22/21 A3014 RMK AO2 T02170211
KLEE 201053Z 02005KT 10SM CLR 22/22 A3014 RMK AO2 SLP203 T02170217
KLEE 200953Z AUTO 02005KT 10SM CLR 22/22 A3012 RMK AO2 SLP198 T02220217
KLEE 200853Z AUTO 03005KT 10SM BKN120 23/22 A3012 RMK AO2 SLP197 T02280222 56006
KLEE 200753Z AUTO 02007KT 10SM CLR 23/22 A3012 RMK AO2 SLP198 T02280222
KLEE 200653Z AUTO 04006KT 10SM BKN060 23/22 A3012 RMK AO2 SLP199 T02280222
KLEE 200553Z AUTO 03005KT 10SM OVC044 23/22 A3014 RMK AO2 RAB15E33 SLP203 P0002 60002 T02330222 10239 20233 58002
KLEE 200532Z AUTO 04007KT 8SM -RA FEW015 BKN037 OVC045 23/23 A3014 RMK AO2 RAB15 P0002 T02330228
KLEE 200510Z AUTO 05006KT 10SM FEW010 BKN016 OVC045 23/22 A3014 RMK AO2 T02330222
KLEE 200453Z AUTO 03004KT 10SM BKN014 23/22 A3014 RMK AO2 SLP205 T02330222 403000206
KLEE 200353Z AUTO 04009KT 10SM BKN049 23/22 A3014 RMK AO2 SLP205 T02330222
KLEE 200253Z AUTO 04008KT 10SM CLR 23/22 A3014 RMK AO2 SLP205 T02330217 53008
KLEE 200153Z AUTO 05009KT 10SM CLR 24/22 A3013 RMK AO2 SLP201 T02390217
KLEE 200053Z AUTO 03008KT 10SM CLR 24/22 A3012 RMK AO2 SLP198 T02390217
KLEE 192353Z AUTO 04011KT 10SM CLR 24/22 A3012 RMK AO2 SLP197 60000 T02440217 10294 20244 53010
KLEE 192253Z AUTO 04011KT 10SM CLR 26/22 A3010 RMK AO2 SLP192 T02560217
KLEE 192153Z 04012G21KT 10SM CLR 27/22 A3009 RMK AO2 SLP189 T02670217
KLEE 192053Z 03011G22KT 10SM FEW044 SCT120 27/22 A3009 RMK AO2 SLP187 60000 T02670217 55003